createdAt,value
2022-11-10T00:02:34.472Z,100.00
2022-11-10T00:07:55.535Z,100.00
2022-11-10T00:13:16.698Z,100.00
2022-11-10T00:18:37.695Z,100.00
2022-11-10T00:23:58.575Z,100.00
2022-11-10T00:29:20.152Z,100.00
2022-11-10T00:34:41.414Z,100.00
2022-11-10T00:40:02.556Z,100.00
2022-11-10T00:45:23.581Z,100.00
2022-11-10T00:50:44.802Z,100.00
2022-11-10T00:56:06.004Z,100.00
2022-11-10T01:01:27.436Z,100.00
2022-11-10T01:06:48.738Z,100.00
2022-11-10T01:12:09.937Z,100.00
2022-11-10T01:17:31.162Z,100.00
2022-11-10T01:22:52.441Z,100.00
2022-11-10T01:28:13.619Z,100.00
2022-11-10T01:33:35.671Z,100.00
2022-11-10T01:38:56.591Z,100.00
2022-11-10T01:44:20.056Z,100.00
2022-11-10T01:49:41.057Z,100.00
2022-11-10T01:55:02.655Z,100.00
2022-11-10T02:00:24.523Z,100.00
2022-11-10T02:05:45.698Z,100.00
2022-11-10T02:11:06.560Z,100.00
2022-11-10T02:16:27.468Z,100.00
2022-11-10T02:21:48.283Z,100.00
2022-11-10T02:27:09.309Z,100.00
2022-11-10T02:32:30.116Z,100.00
2022-11-10T02:37:51.730Z,100.00
2022-11-10T02:43:14.936Z,100.00
2022-11-10T02:48:35.755Z,100.00
2022-11-10T02:53:56.639Z,100.00
2022-11-10T02:59:17.620Z,100.00
2022-11-10T03:04:38.707Z,100.00
2022-11-10T03:09:59.570Z,100.00
2022-11-10T03:15:21.316Z,100.00
2022-11-10T03:20:42.295Z,100.00
2022-11-10T03:26:07.526Z,100.00
2022-11-10T03:31:28.574Z,100.00
2022-11-10T03:36:49.723Z,100.00
2022-11-10T03:42:10.863Z,100.00
2022-11-10T03:47:31.928Z,100.00
2022-11-10T03:52:53.033Z,100.00
2022-11-10T03:58:14.231Z,100.00
2022-11-10T04:03:35.488Z,100.00
2022-11-10T04:08:59.424Z,100.00
2022-11-10T04:14:39.277Z,100.00
2022-11-10T04:20:00.430Z,100.00
2022-11-10T04:25:21.373Z,100.00
2022-11-10T04:30:43.912Z,100.00
2022-11-10T04:36:05.454Z,100.00
2022-11-10T04:41:27.904Z,100.00
2022-11-10T04:46:49.801Z,100.00
2022-11-10T04:52:11.433Z,100.00
2022-11-10T04:57:32.428Z,100.00
2022-11-10T05:02:53.536Z,100.00
2022-11-10T05:08:14.775Z,100.00
2022-11-10T05:13:35.608Z,100.00
2022-11-10T05:18:58.305Z,100.00
2022-11-10T05:24:19.815Z,100.00
2022-11-10T05:29:41.132Z,100.00
2022-11-10T05:35:01.969Z,100.00
2022-11-10T05:40:23.405Z,100.00
2022-11-10T05:45:44.500Z,100.00
2022-11-10T05:51:06.850Z,100.00
2022-11-10T05:56:27.879Z,100.00
2022-11-10T06:01:48.772Z,100.00
2022-11-10T06:07:11.984Z,100.00
2022-11-10T06:12:33.548Z,100.00
2022-11-10T06:17:55.536Z,100.00
2022-11-10T06:23:16.739Z,100.00
2022-11-10T06:28:37.719Z,100.00
2022-11-10T06:33:58.784Z,100.00
2022-11-10T06:39:20.111Z,100.00
2022-11-10T06:44:41.256Z,100.00
2022-11-10T06:50:02.359Z,100.00
2022-11-10T06:55:23.888Z,100.00
2022-11-10T07:00:45.340Z,100.00
2022-11-10T07:06:06.921Z,100.00
2022-11-10T07:11:27.946Z,100.00
2022-11-10T07:16:49.551Z,100.00
2022-11-10T07:22:11.412Z,100.00
2022-11-10T07:27:32.743Z,100.00
2022-11-10T07:33:14.667Z,100.00
2022-11-10T07:38:35.849Z,100.00
2022-11-10T07:43:57.096Z,100.00
2022-11-10T07:49:18.334Z,100.00
2022-11-10T07:54:39.443Z,100.00
2022-11-10T08:00:00.419Z,100.00
2022-11-10T08:05:22.474Z,100.00
2022-11-10T08:10:44.095Z,100.00
2022-11-10T08:16:05.407Z,100.00
2022-11-10T08:21:26.305Z,100.00
2022-11-10T08:26:47.271Z,100.00
2022-11-10T08:32:08.640Z,100.00
2022-11-10T08:37:29.432Z,100.00
2022-11-10T08:42:59.691Z,100.00
2022-11-10T08:48:22.058Z,100.00
2022-11-10T08:53:43.258Z,100.00
2022-11-10T08:59:04.349Z,100.00
2022-11-10T09:04:25.148Z,100.00
2022-11-10T09:10:01.367Z,100.00
2022-11-10T09:15:27.731Z,94.84
2022-11-10T09:20:48.900Z,97.56
2022-11-10T09:26:09.655Z,99.48
2022-11-10T09:31:30.732Z,91.36
2022-11-10T09:36:52.321Z,96.75
2022-11-10T09:52:47.569Z,94.45
2022-11-10T09:58:14.144Z,91.52
2022-11-10T10:03:39.431Z,88.49
2022-11-10T10:09:11.921Z,87.09
2022-11-10T10:14:32.900Z,85.45
2022-11-10T10:20:12.927Z,91.76
2022-11-10T10:25:34.115Z,90.01
2022-11-10T10:31:07.141Z,90.47
2022-11-10T10:36:31.172Z,89.37
2022-11-10T10:41:52.527Z,87.78
2022-11-10T10:47:13.347Z,86.69
2022-11-10T10:52:34.639Z,82.71
2022-11-10T10:58:29.165Z,77.98
2022-11-10T11:03:51.763Z,74.73
2022-11-10T11:09:25.436Z,74.00
2022-11-10T11:14:46.543Z,73.41
2022-11-10T11:20:15.346Z,60.13
2022-11-10T11:25:42.128Z,59.70
2022-11-10T11:31:05.965Z,69.28
2022-11-10T11:36:49.109Z,57.96
2022-11-10T11:42:29.526Z,47.60
2022-11-10T11:47:59.602Z,53.63
2022-11-10T11:59:12.174Z,53.00
2022-11-10T12:04:51.262Z,53.36
2022-11-10T12:10:27.563Z,56.22
2022-11-10T12:16:04.059Z,57.77
2022-11-10T12:21:45.621Z,53.41
2022-11-10T12:27:17.461Z,53.39
2022-11-10T12:33:00.095Z,60.84
2022-11-10T12:38:31.396Z,61.52
2022-11-10T12:44:10.806Z,62.55
2022-11-10T12:49:39.289Z,62.42
2022-11-10T12:55:00.981Z,63.58
2022-11-10T13:00:32.482Z,62.10
2022-11-10T13:06:25.296Z,65.68
2022-11-10T13:12:04.018Z,71.71
2022-11-10T13:17:30.960Z,69.70
2022-11-10T13:22:51.909Z,67.36
2022-11-10T13:28:13.364Z,65.68
2022-11-10T13:33:36.926Z,66.80
2022-11-10T13:39:15.313Z,68.20
2022-11-10T13:44:43.594Z,65.47
2022-11-10T13:50:21.090Z,67.70
2022-11-10T14:01:18.518Z,69.00
2022-11-10T14:06:55.092Z,72.29
2022-11-10T14:12:27.180Z,71.95
2022-11-10T14:17:51.896Z,72.26
2022-11-10T14:23:34.003Z,72.69
2022-11-10T14:28:57.284Z,76.77
2022-11-10T14:34:19.211Z,76.96
2022-11-10T14:39:41.817Z,76.34
2022-11-10T14:45:15.740Z,78.61
2022-11-10T14:50:37.004Z,79.68
2022-11-10T14:55:59.239Z,81.96
2022-11-10T15:01:39.028Z,84.30
2022-11-10T15:07:00.765Z,86.31
2022-11-10T15:12:27.277Z,91.03
2022-11-10T15:17:51.640Z,92.87
2022-11-10T15:23:32.073Z,94.78
2022-11-10T15:28:55.161Z,97.76
2022-11-10T15:34:49.011Z,100.00
2022-11-10T15:40:29.371Z,100.00
2022-11-10T15:45:57.290Z,100.00
2022-11-10T15:51:24.655Z,100.00
2022-11-10T15:56:46.829Z,100.00
2022-11-10T16:02:25.876Z,100.00
2022-11-10T16:07:49.531Z,98.85
2022-11-10T16:13:13.672Z,97.46
2022-11-10T16:18:34.784Z,94.74
2022-11-10T16:23:55.742Z,96.49
2022-11-10T16:29:20.869Z,96.32
2022-11-10T16:34:44.467Z,100.00
2022-11-10T16:40:14.812Z,100.00
2022-11-10T16:45:36.042Z,100.00
2022-11-10T16:50:59.165Z,100.00
2022-11-10T16:56:23.539Z,100.00
2022-11-10T17:01:46.191Z,100.00
2022-11-10T17:07:14.754Z,100.00
2022-11-10T17:12:35.607Z,100.00
2022-11-10T17:18:04.466Z,100.00
2022-11-10T17:23:27.054Z,100.00
2022-11-10T17:28:49.194Z,100.00
2022-11-10T17:34:10.288Z,100.00
2022-11-10T17:39:32.853Z,100.00
2022-11-10T17:44:54.024Z,100.00
2022-11-10T17:50:19.836Z,100.00
2022-11-10T17:55:40.956Z,100.00
2022-11-10T18:01:02.421Z,100.00
2022-11-10T18:06:23.871Z,100.00
2022-11-10T18:11:44.884Z,100.00
2022-11-10T18:17:06.161Z,100.00
2022-11-10T18:22:27.237Z,100.00
2022-11-10T18:27:48.751Z,100.00
2022-11-10T18:33:12.213Z,100.00
2022-11-10T18:38:33.716Z,100.00
2022-11-10T18:43:54.851Z,100.00
2022-11-10T18:49:16.223Z,100.00
2022-11-10T18:54:37.299Z,100.00
2022-11-10T18:59:58.432Z,100.00
2022-11-10T19:05:19.625Z,100.00
2022-11-10T19:10:42.917Z,100.00
2022-11-10T19:16:07.730Z,100.00
2022-11-10T19:21:28.694Z,100.00
2022-11-10T19:26:53.257Z,100.00
2022-11-10T19:32:14.675Z,100.00
2022-11-10T19:37:35.644Z,100.00
2022-11-10T19:42:56.555Z,100.00
2022-11-10T19:54:05.062Z,100.00
2022-11-10T19:59:26.136Z,100.00
2022-11-10T20:05:05.523Z,100.00
2022-11-10T20:10:26.666Z,100.00
2022-11-10T20:15:47.737Z,100.00
2022-11-10T20:21:17.757Z,100.00
2022-11-10T20:26:38.913Z,100.00
2022-11-10T20:31:59.697Z,100.00
2022-11-10T20:37:20.865Z,100.00
2022-11-10T20:42:42.878Z,100.00
2022-11-10T20:48:04.493Z,100.00
2022-11-10T20:53:26.069Z,100.00
2022-11-10T20:58:49.034Z,100.00
2022-11-10T21:04:11.001Z,100.00
2022-11-10T21:09:31.910Z,100.00
2022-11-10T21:14:53.276Z,100.00
2022-11-10T21:20:14.655Z,100.00
2022-11-10T21:25:35.897Z,100.00
2022-11-10T21:31:04.808Z,100.00
2022-11-10T21:36:29.306Z,100.00
2022-11-10T21:41:50.906Z,100.00
2022-11-10T21:47:11.679Z,100.00
2022-11-10T21:52:33.051Z,100.00
2022-11-10T21:58:00.914Z,100.00
2022-11-10T22:03:22.632Z,100.00
2022-11-10T22:08:45.747Z,100.00
2022-11-10T22:14:31.926Z,100.00
2022-11-10T22:19:53.208Z,100.00
2022-11-10T22:25:14.315Z,100.00
2022-11-10T22:30:37.804Z,100.00
2022-11-10T22:36:00.339Z,100.00
2022-11-10T22:41:40.047Z,100.00
2022-11-10T22:47:01.521Z,100.00
2022-11-10T22:52:22.795Z,100.00
2022-11-10T22:57:43.755Z,100.00
2022-11-10T23:03:04.881Z,100.00
2022-11-10T23:08:25.786Z,100.00
2022-11-10T23:13:47.255Z,100.00
2022-11-10T23:19:10.410Z,100.00
2022-11-10T23:24:31.565Z,100.00
2022-11-10T23:29:52.690Z,100.00
2022-11-10T23:35:13.575Z,100.00
2022-11-10T23:40:34.615Z,100.00
2022-11-10T23:46:11.843Z,100.00
2022-11-10T23:51:33.068Z,100.00
2022-11-10T23:56:53.934Z,100.00
